createdAt,value
2023-02-11T17:22:57.007Z,971.29
2023-02-11T17:23:03.812Z,971.34
2023-02-11T17:28:05.387Z,971.33
2023-02-11T17:33:07.140Z,971.34
2023-02-11T17:38:08.401Z,971.34
2023-02-11T17:43:10.205Z,971.38
2023-02-11T17:48:11.889Z,971.42
2023-02-11T17:53:13.094Z,971.44
2023-02-11T17:58:14.313Z,971.46
2023-02-11T18:03:15.682Z,971.43
2023-02-11T18:08:17.453Z,971.42
2023-02-11T18:13:19.205Z,971.33
2023-02-11T18:18:20.717Z,971.27
2023-02-11T18:23:22.079Z,971.29
2023-02-11T18:28:23.418Z,971.24
2023-02-11T18:33:24.597Z,971.26
2023-02-11T18:38:26.798Z,971.29
2023-02-11T18:43:28.030Z,971.36
2023-02-11T18:48:29.466Z,971.34
2023-02-11T18:53:31.279Z,971.47
2023-02-11T18:58:33.139Z,971.42
2023-02-11T19:03:34.769Z,971.49
2023-02-11T19:08:36.083Z,971.42
2023-02-11T19:13:37.567Z,971.58
2023-02-11T19:18:39.083Z,971.65
2023-02-11T19:23:41.125Z,971.63
2023-02-11T19:28:43.066Z,971.61
2023-02-11T19:33:45.098Z,971.53
2023-02-11T19:38:46.926Z,971.58
2023-02-11T19:43:48.720Z,971.59
2023-02-11T19:48:50.734Z,971.55
2023-02-11T19:53:52.694Z,971.6
2023-02-11T19:58:53.985Z,971.68
2023-02-11T20:03:55.801Z,971.78
2023-02-11T20:08:58.522Z,971.8
2023-02-11T20:13:59.112Z,971.81
2023-02-11T20:19:00.652Z,971.74
2023-02-11T20:24:02.379Z,971.87
2023-02-11T20:29:04.332Z,971.84
2023-02-11T20:34:05.839Z,971.86
2023-02-11T20:39:07.450Z,971.84
2023-02-11T20:44:08.805Z,971.81
2023-02-11T20:49:10.810Z,971.86
2023-02-11T20:54:12.255Z,971.8
2023-02-11T20:59:14.277Z,971.79
2023-02-11T21:04:16.356Z,971.85
2023-02-11T21:09:17.731Z,971.83
2023-02-11T21:14:19.056Z,971.7
2023-02-11T21:19:20.752Z,971.7
2023-02-11T21:24:22.058Z,971.66
2023-02-11T21:29:24.086Z,971.62
2023-02-11T21:34:25.721Z,971.65
2023-02-11T21:39:27.161Z,971.64
2023-02-11T21:44:28.591Z,971.71
2023-02-11T21:49:30.137Z,971.7
2023-02-11T21:54:31.489Z,971.69
2023-02-11T21:59:32.856Z,971.7
2023-02-11T22:04:34.346Z,971.73
2023-02-11T22:09:36.408Z,971.78
2023-02-11T22:14:38.453Z,971.91
2023-02-11T22:19:39.836Z,972
2023-02-11T22:24:41.735Z,972.05
2023-02-11T22:29:43.357Z,971.98
2023-02-11T22:34:45.178Z,971.93
2023-02-11T22:39:47.333Z,972
2023-02-11T22:44:49.222Z,972.04
2023-02-11T22:49:51.102Z,972.08
2023-02-11T22:54:53.257Z,972.24
2023-02-11T22:59:55.019Z,972.32
2023-02-11T23:11:47.450Z,972.25
2023-02-11T23:14:59.967Z,972.29
2023-02-11T23:20:01.147Z,972.28
2023-02-11T23:25:02.391Z,972.21
2023-02-11T23:30:04.249Z,972.22
2023-02-11T23:40:18.262Z,972.28
